Time;durP1;ratioP1;P1;durP2;ratioP2;P2;SDS_P1;SDS_P2;PMS_P1;PMS_P2;Temp;Humidity;BMP_temperature;BMP_pressure;BME280_temperature;BME280_humidity;BME280_pressure;Samples;Min_cycle;Max_cycle;Signal;HPM_P1;HPM_P2
2023/08/02 00:02:11;;;;;;;13.88;5.75;;;17.40;86.60;;;;;;4969608;28;20134;-73
2023/08/02 00:04:37;;;;;;;11.82;5.55;;;17.30;86.50;;;;;;4964164;28;20474;-74
2023/08/02 00:07:03;;;;;;;13.38;5.57;;;17.40;86.60;;;;;;4966256;28;20047;-75
2023/08/02 00:09:29;;;;;;;10.68;4.60;;;17.40;86.60;;;;;;4963362;28;20034;-76
2023/08/02 00:11:55;;;;;;;12.98;5.18;;;17.50;86.70;;;;;;4961921;28;20061;-81
2023/08/02 00:14:20;;;;;;;12.20;5.28;;;17.50;86.70;;;;;;4963291;28;20030;-74
2023/08/02 00:16:46;;;;;;;11.30;5.65;;;17.50;86.80;;;;;;4965766;28;20035;-74
2023/08/02 00:19:12;;;;;;;12.45;5.80;;;17.50;87.00;;;;;;4965658;28;20413;-78
2023/08/02 00:21:37;;;;;;;11.05;5.35;;;17.50;87.10;;;;;;4967364;28;20109;-77
2023/08/02 00:24:03;;;;;;;12.60;5.35;;;17.60;87.20;;;;;;4965759;28;20391;-75
2023/08/02 00:26:29;;;;;;;10.18;5.15;;;17.50;87.30;;;;;;4967213;28;20031;-76
2023/08/02 00:28:55;;;;;;;11.07;5.72;;;17.50;87.50;;;;;;4966232;28;20058;-81
2023/08/02 00:31:20;;;;;;;9.85;5.35;;;17.50;87.50;;;;;;4966824;28;20031;-74
2023/08/02 00:33:46;;;;;;;10.77;5.20;;;17.60;87.40;;;;;;4967075;28;20680;-77
2023/08/02 00:36:12;;;;;;;13.63;5.05;;;17.50;87.40;;;;;;4968207;28;20039;-82
2023/08/02 00:38:37;;;;;;;10.48;5.60;;;17.50;87.60;;;;;;4967823;28;20031;-74
2023/08/02 00:41:04;;;;;;;12.63;5.78;;;17.50;87.60;;;;;;4968870;28;20058;-73
2023/08/02 00:43:36;;;;;;;13.30;5.47;;;17.50;87.60;;;;;;4966124;28;20069;-73
2023/08/02 00:46:02;;;;;;;13.48;5.40;;;17.50;87.60;;;;;;4963456;28;20058;-74
2023/08/02 00:48:28;;;;;;;11.60;5.38;;;17.60;87.40;;;;;;4967903;28;20058;-76
2023/08/02 00:50:54;;;;;;;11.57;5.50;;;17.60;87.40;;;;;;4965217;28;20118;-80
2023/08/02 00:53:21;;;;;;;9.52;4.88;;;17.60;87.40;;;;;;4969304;28;20065;-73
2023/08/02 00:55:49;;;;;;;9.30;5.32;;;17.60;87.40;;;;;;4967023;28;20031;-76
2023/08/02 00:58:14;;;;;;;8.88;4.93;;;17.60;87.20;;;;;;4945578;28;20102;-75
2023/08/02 01:00:40;;;;;;;9.73;4.93;;;17.60;87.10;;;;;;4951016;28;20147;-75
2023/08/02 01:03:06;;;;;;;9.52;4.90;;;17.60;87.10;;;;;;4950409;28;20038;-73
2023/08/02 01:05:39;;;;;;;10.23;5.28;;;17.60;87.00;;;;;;4946451;28;20296;-74
2023/08/02 01:08:08;;;;;;;11.63;4.97;;;17.60;87.10;;;;;;4949165;28;20077;-75
2023/08/02 01:10:43;;;;;;;11.18;5.25;;;17.50;87.10;;;;;;4951279;28;20031;-74
2023/08/02 01:13:13;;;;;;;14.23;4.95;;;17.60;87.00;;;;;;4948578;28;20469;-74
2023/08/02 01:15:39;;;;;;;9.18;4.68;;;17.60;87.00;;;;;;4946717;28;20046;-76
2023/08/02 01:18:05;;;;;;;9.27;4.85;;;17.60;87.00;;;;;;4944818;28;20035;-73
2023/08/02 01:20:31;;;;;;;15.80;5.13;;;17.60;86.80;;;;;;4944468;28;20574;-75
2023/08/02 01:22:56;;;;;;;8.55;4.50;;;17.60;86.60;;;;;;4942458;28;20070;-75
2023/08/02 01:25:25;;;;;;;7.47;4.40;;;17.60;86.60;;;;;;4946706;28;20059;-75
2023/08/02 01:27:58;;;;;;;10.65;5.03;;;17.60;86.50;;;;;;4941295;28;20475;-73
2023/08/02 01:30:29;;;;;;;11.07;5.13;;;17.60;86.40;;;;;;4942775;28;20040;-77
2023/08/02 01:32:55;;;;;;;9.18;4.55;;;17.60;86.40;;;;;;4949635;28;20758;-72
2023/08/02 01:35:21;;;;;;;10.40;4.93;;;17.60;86.50;;;;;;4943280;28;20039;-76
2023/08/02 01:37:48;;;;;;;8.45;4.20;;;17.60;86.60;;;;;;4949245;28;20026;-76
2023/08/02 01:40:14;;;;;;;8.48;4.90;;;17.60;86.60;;;;;;4948201;28;20058;-73
2023/08/02 01:42:40;;;;;;;10.50;4.50;;;17.60;86.60;;;;;;4947592;28;20507;-75
2023/08/02 01:45:06;;;;;;;10.18;5.10;;;17.60;86.70;;;;;;4940951;28;20376;-80
2023/08/02 01:47:32;;;;;;;9.70;4.72;;;17.60;86.70;;;;;;4968672;28;20027;-75
2023/08/02 01:49:57;;;;;;;10.50;5.22;;;17.60;86.90;;;;;;4962542;28;20038;-77
2023/08/02 01:52:23;;;;;;;9.45;4.93;;;17.60;87.10;;;;;;4965124;28;20074;-73
2023/08/02 01:54:49;;;;;;;9.90;4.68;;;17.60;87.50;;;;;;4966747;28;20085;-74
2023/08/02 01:57:15;;;;;;;9.73;5.00;;;17.60;87.50;;;;;;4964758;28;20034;-76
2023/08/02 01:59:40;;;;;;;9.98;4.70;;;17.60;87.60;;;;;;4961933;28;20384;-76
2023/08/02 02:02:06;;;;;;;14.43;5.45;;;17.50;87.80;;;;;;4964774;28;20392;-76
2023/08/02 02:04:32;;;;;;;8.38;5.30;;;17.50;87.80;;;;;;4965853;28;20051;-74
2023/08/02 02:06:57;;;;;;;10.27;5.55;;;17.50;87.80;;;;;;4961876;28;20043;-74
2023/08/02 02:09:23;;;;;;;9.13;5.20;;;17.50;87.90;;;;;;4962035;28;20018;-75
2023/08/02 02:11:49;;;;;;;9.48;4.97;;;17.50;88.00;;;;;;4954307;28;20047;-78
2023/08/02 02:14:15;;;;;;;9.60;4.97;;;17.50;88.20;;;;;;4945844;28;20362;-73
2023/08/02 02:16:40;;;;;;;9.98;4.93;;;17.50;88.20;;;;;;4951213;28;20041;-75
2023/08/02 02:19:06;;;;;;;9.75;4.68;;;17.50;88.40;;;;;;4960325;28;20218;-74
2023/08/02 02:21:32;;;;;;;9.85;4.85;;;17.50;88.50;;;;;;4965293;28;20120;-73
2023/08/02 02:23:57;;;;;;;8.48;4.93;;;17.50;88.60;;;;;;4964056;28;20023;-74
2023/08/02 02:26:25;;;;;;;8.73;4.78;;;17.50;88.60;;;;;;4960508;28;20139;-74
2023/08/02 02:28:51;;;;;;;10.57;6.00;;;17.40;88.70;;;;;;4961111;28;20038;-76
2023/08/02 02:31:17;;;;;;;11.52;6.65;;;17.40;88.70;;;;;;4961557;28;20061;-74
2023/08/02 02:33:42;;;;;;;14.18;6.32;;;17.40;89.00;;;;;;4964781;28;20039;-75
2023/08/02 02:36:08;;;;;;;9.70;6.18;;;17.30;89.30;;;;;;4961972;28;20038;-74
2023/08/02 02:38:34;;;;;;;11.10;6.40;;;17.30;89.40;;;;;;4962713;28;20031;-74
2023/08/02 02:40:59;;;;;;;11.27;6.25;;;17.30;89.60;;;;;;4955729;28;20043;-77
2023/08/02 02:43:25;;;;;;;10.75;6.55;;;17.20;89.70;;;;;;4962867;28;20043;-81
2023/08/02 02:45:51;;;;;;;10.02;6.47;;;17.20;89.90;;;;;;4956847;28;20070;-75
2023/08/02 02:48:16;;;;;;;10.70;7.03;;;17.20;90.20;;;;;;4944103;28;20027;-75
2023/08/02 02:50:42;;;;;;;13.27;7.70;;;17.10;90.40;;;;;;4947212;28;20562;-76
2023/08/02 02:53:08;;;;;;;12.18;7.63;;;17.10;90.60;;;;;;4944720;28;20115;-78
2023/08/02 02:55:33;;;;;;;10.50;7.78;;;17.10;90.80;;;;;;4947448;28;20475;-80
2023/08/02 02:57:59;;;;;;;10.85;7.57;;;17.10;90.80;;;;;;4962705;28;20102;-73
2023/08/02 03:00:25;;;;;;;12.75;8.70;;;17.10;91.00;;;;;;4963467;28;20043;-74
2023/08/02 03:02:50;;;;;;;10.38;8.13;;;17.10;91.10;;;;;;4964967;28;20027;-73
2023/08/02 03:05:16;;;;;;;11.55;7.72;;;17.10;91.20;;;;;;4961371;28;20034;-74
2023/08/02 03:07:42;;;;;;;11.93;8.77;;;17.10;91.30;;;;;;4943329;29;20038;-76
2023/08/02 03:10:08;;;;;;;13.15;9.10;;;17.10;91.40;;;;;;4938030;28;20023;-75
2023/08/02 03:12:33;;;;;;;12.23;7.80;;;17.10;91.60;;;;;;4941305;28;20436;-75
2023/08/02 03:14:59;;;;;;;12.85;8.55;;;17.10;91.60;;;;;;4945872;28;20031;-73
2023/08/02 03:17:26;;;;;;;10.85;7.43;;;17.10;91.70;;;;;;4944210;28;20051;-74
2023/08/02 03:19:52;;;;;;;11.23;7.65;;;17.10;91.80;;;;;;4944991;29;20031;-78
2023/08/02 03:22:17;;;;;;;10.50;7.50;;;17.10;91.90;;;;;;4944110;28;20043;-75
2023/08/02 03:24:43;;;;;;;10.57;7.80;;;17.10;92.00;;;;;;4943466;29;20034;-81
2023/08/02 03:27:09;;;;;;;12.23;7.93;;;17.00;92.00;;;;;;4945038;28;20134;-73
2023/08/02 03:29:35;;;;;;;10.15;7.78;;;17.00;92.20;;;;;;4946556;29;20027;-75
2023/08/02 03:32:01;;;;;;;11.52;7.95;;;17.00;92.20;;;;;;4945045;28;20122;-74
2023/08/02 03:34:26;;;;;;;11.27;6.85;;;17.00;92.20;;;;;;4946440;28;20056;-74
2023/08/02 03:36:52;;;;;;;9.20;6.85;;;17.00;92.20;;;;;;4944703;28;20067;-75
2023/08/02 03:39:18;;;;;;;9.38;6.00;;;17.00;92.30;;;;;;4940618;28;20038;-73
2023/08/02 03:41:43;;;;;;;9.15;5.45;;;17.00;92.20;;;;;;4945976;28;20055;-74
2023/08/02 03:44:09;;;;;;;8.93;5.30;;;17.00;92.40;;;;;;4938262;28;20039;-82
2023/08/02 03:46:35;;;;;;;8.60;5.72;;;17.00;92.40;;;;;;4947493;28;20110;-73
2023/08/02 03:49:01;;;;;;;9.57;5.30;;;17.00;92.30;;;;;;4951259;28;20110;-73
2023/08/02 03:51:27;;;;;;;8.30;5.32;;;17.00;92.40;;;;;;4946763;28;20043;-75
2023/08/02 03:53:53;;;;;;;8.90;5.55;;;17.00;92.30;;;;;;4949409;29;20148;-77
2023/08/02 03:56:19;;;;;;;8.23;4.70;;;17.00;92.30;;;;;;4957536;28;20126;-75
2023/08/02 03:58:44;;;;;;;8.98;4.72;;;17.00;92.30;;;;;;5002153;28;20614;-76
2023/08/02 04:01:10;;;;;;;8.43;5.25;;;17.00;92.40;;;;;;4956357;28;20047;-77
2023/08/02 04:03:35;;;;;;;8.77;5.03;;;17.00;92.30;;;;;;4946927;29;20035;-74
2023/08/02 04:06:01;;;;;;;10.00;5.18;;;17.00;92.30;;;;;;4946391;28;20043;-73
2023/08/02 04:08:27;;;;;;;9.40;4.95;;;17.00;92.30;;;;;;4944135;29;20038;-74
2023/08/02 04:10:52;;;;;;;7.90;4.80;;;17.00;92.30;;;;;;4948779;28;20492;-75
2023/08/02 04:13:18;;;;;;;8.55;4.80;;;17.00;92.30;;;;;;4942489;28;20116;-73
2023/08/02 04:15:44;;;;;;;8.32;4.35;;;17.00;92.30;;;;;;4945134;28;20389;-76
2023/08/02 04:18:09;;;;;;;8.73;4.68;;;17.00;92.50;;;;;;4948485;29;20046;-75
2023/08/02 04:20:39;;;;;;;8.55;4.57;;;17.00;92.60;;;;;;4948372;28;20078;-75
2023/08/02 04:23:05;;;;;;;8.65;4.85;;;17.00;92.60;;;;;;4943177;28;20550;-75
2023/08/02 04:25:30;;;;;;;7.97;4.60;;;16.90;92.70;;;;;;4944829;28;20035;-74
2023/08/02 04:27:56;;;;;;;7.63;4.07;;;17.00;92.80;;;;;;4947678;29;20513;-76
2023/08/02 04:30:22;;;;;;;6.90;4.32;;;17.00;92.80;;;;;;4946528;28;20055;-75
2023/08/02 04:32:50;;;;;;;9.18;4.93;;;17.00;92.80;;;;;;4978202;28;20035;-74
2023/08/02 04:35:15;;;;;;;7.15;4.68;;;17.00;92.80;;;;;;4945297;28;20031;-74
2023/08/02 04:37:41;;;;;;;7.18;3.78;;;17.00;92.90;;;;;;4947168;28;20457;-85
2023/08/02 04:40:08;;;;;;;8.25;4.18;;;17.00;93.00;;;;;;4944485;28;20138;-77
2023/08/02 04:42:33;;;;;;;8.02;4.68;;;17.00;93.10;;;;;;4948685;29;20143;-74
2023/08/02 04:44:59;;;;;;;6.80;4.22;;;16.90;93.10;;;;;;4975629;28;20110;-83
2023/08/02 04:47:25;;;;;;;7.70;4.10;;;16.90;93.20;;;;;;4943299;29;20023;-75
2023/08/02 04:49:50;;;;;;;6.78;3.97;;;17.00;93.30;;;;;;4949540;28;20031;-76
2023/08/02 04:52:16;;;;;;;8.02;4.15;;;16.90;93.30;;;;;;4947615;28;20043;-73
2023/08/02 04:54:41;;;;;;;6.32;3.97;;;17.00;93.40;;;;;;4945523;29;20023;-76
2023/08/02 04:57:07;;;;;;;7.70;3.85;;;17.00;93.30;;;;;;4946980;28;20062;-76
2023/08/02 04:59:34;;;;;;;8.38;4.35;;;17.00;93.30;;;;;;4947792;28;20407;-73
2023/08/02 05:01:59;;;;;;;6.78;3.90;;;17.00;93.30;;;;;;4947620;28;20042;-74
2023/08/02 05:04:25;;;;;;;6.72;3.78;;;17.10;93.30;;;;;;4942692;28;20031;-74
2023/08/02 05:06:51;;;;;;;7.97;4.13;;;17.10;93.30;;;;;;4948252;28;20035;-75
2023/08/02 05:09:17;;;;;;;7.03;3.88;;;17.10;93.40;;;;;;4944395;28;20035;-74
2023/08/02 05:11:43;;;;;;;7.45;3.95;;;17.10;93.40;;;;;;4945584;28;20035;-74
2023/08/02 05:14:09;;;;;;;8.80;4.43;;;17.10;93.40;;;;;;4947472;29;20038;-74
2023/08/02 05:16:36;;;;;;;8.93;4.80;;;17.10;93.50;;;;;;4944184;28;20130;-74
2023/08/02 05:19:03;;;;;;;7.28;4.68;;;17.10;93.40;;;;;;4947172;28;20089;-73
2023/08/02 05:21:29;;;;;;;7.50;4.05;;;17.10;93.40;;;;;;4946874;28;20126;-74
2023/08/02 05:23:55;;;;;;;6.68;4.07;;;17.10;93.50;;;;;;4942806;29;20523;-75
2023/08/02 05:26:22;;;;;;;6.68;3.90;;;17.10;93.50;;;;;;4943136;28;20039;-77
2023/08/02 05:28:48;;;;;;;5.82;4.00;;;17.20;93.50;;;;;;4948072;28;20031;-74
2023/08/02 05:31:14;;;;;;;6.32;3.78;;;17.20;93.50;;;;;;4944469;28;20373;-77
2023/08/02 05:33:40;;;;;;;5.57;3.42;;;17.20;93.50;;;;;;4940108;28;20027;-73
2023/08/02 05:36:06;;;;;;;5.50;3.17;;;17.20;93.60;;;;;;4946388;28;20039;-74
2023/08/02 05:38:38;;;;;;;4.68;2.85;;;17.30;93.60;;;;;;4941766;28;20031;-73
2023/08/02 05:41:03;;;;;;;4.25;2.35;;;17.40;93.60;;;;;;4940737;28;20055;-76
2023/08/02 05:43:30;;;;;;;5.25;2.40;;;17.40;93.60;;;;;;4943166;28;20463;-80
2023/08/02 05:45:56;;;;;;;3.80;2.20;;;17.50;93.60;;;;;;4943560;28;20047;-77
2023/08/02 05:48:22;;;;;;;2.53;1.90;;;17.50;93.50;;;;;;4946247;29;20027;-79
2023/08/02 05:50:48;;;;;;;4.15;1.75;;;17.50;93.60;;;;;;4945862;28;20051;-78
2023/08/02 05:53:13;;;;;;;2.83;1.70;;;17.60;93.60;;;;;;4945502;29;20507;-79
2023/08/02 05:55:39;;;;;;;3.53;1.60;;;17.60;93.50;;;;;;4946996;28;20484;-79
2023/08/02 05:58:05;;;;;;;2.85;1.70;;;17.60;93.60;;;;;;4945485;29;20437;-79
2023/08/02 06:00:30;;;;;;;2.85;1.48;;;17.60;93.50;;;;;;4944586;28;20646;-78
2023/08/02 06:02:56;;;;;;;2.15;1.60;;;17.60;93.40;;;;;;4942976;29;20202;-79
2023/08/02 06:05:22;;;;;;;3.45;1.90;;;17.70;93.40;;;;;;4942180;28;20384;-79
2023/08/02 06:07:47;;;;;;;3.80;1.88;;;17.70;93.40;;;;;;4938716;29;20027;-79
2023/08/02 06:10:13;;;;;;;3.10;1.95;;;17.80;93.40;;;;;;4940231;28;20558;-78
2023/08/02 06:12:39;;;;;;;2.75;1.90;;;17.80;93.50;;;;;;4943924;28;20477;-79
2023/08/02 06:15:07;;;;;;;1.83;1.52;;;17.90;93.40;;;;;;4940664;28;20034;-79
2023/08/02 06:17:33;;;;;;;2.72;1.63;;;18.00;93.40;;;;;;4942689;28;20110;-79
2023/08/02 06:19:59;;;;;;;2.50;1.70;;;18.00;93.40;;;;;;4943448;28;20130;-77
2023/08/02 06:22:25;;;;;;;1.67;1.50;;;18.10;93.50;;;;;;4944620;28;20443;-78
2023/08/02 06:24:50;;;;;;;2.63;1.50;;;18.10;93.50;;;;;;4944770;29;20042;-77
2023/08/02 06:27:16;;;;;;;1.52;1.25;;;18.10;93.40;;;;;;4944232;28;20085;-78
2023/08/02 06:29:42;;;;;;;2.85;1.40;;;18.10;93.50;;;;;;4945255;29;20702;-78
2023/08/02 06:32:07;;;;;;;2.75;1.60;;;18.20;93.50;;;;;;4942440;28;20054;-78
2023/08/02 06:34:33;;;;;;;3.30;1.60;;;18.30;93.50;;;;;;4943294;28;20456;-79
2023/08/02 06:36:59;;;;;;;3.92;1.40;;;18.40;93.30;;;;;;4943086;28;20035;-77
2023/08/02 06:39:25;;;;;;;3.58;1.60;;;18.50;93.30;;;;;;4946062;29;20472;-78
2023/08/02 06:41:51;;;;;;;4.75;1.50;;;18.60;93.10;;;;;;4941477;28;20043;-78
2023/08/02 06:44:18;;;;;;;2.75;1.42;;;18.80;92.80;;;;;;4943484;28;20027;-78
2023/08/02 06:46:43;;;;;;;2.33;1.48;;;18.80;92.60;;;;;;4942233;28;20050;-78
2023/08/02 06:49:09;;;;;;;2.28;1.42;;;18.90;92.70;;;;;;4945835;28;20031;-80
2023/08/02 06:51:35;;;;;;;2.50;1.58;;;19.00;92.50;;;;;;4955180;28;20027;-79
2023/08/02 06:54:00;;;;;;;4.03;1.48;;;19.10;92.20;;;;;;4963662;28;20407;-78
2023/08/02 06:56:26;;;;;;;2.83;1.30;;;19.10;92.00;;;;;;4963464;28;20062;-77
2023/08/02 06:58:52;;;;;;;2.80;1.42;;;19.20;91.70;;;;;;4967427;28;20049;-80
2023/08/02 07:01:20;;;;;;;2.17;1.45;;;19.10;91.50;;;;;;4963958;28;20047;-78
2023/08/02 07:03:47;;;;;;;2.35;1.40;;;19.10;91.50;;;;;;4964267;28;20049;-78
2023/08/02 07:06:14;;;;;;;2.17;1.40;;;19.20;91.60;;;;;;4952592;28;20094;-77
2023/08/02 07:08:41;;;;;;;2.25;1.40;;;19.10;91.30;;;;;;4944149;28;20046;-78
2023/08/02 07:11:08;;;;;;;2.67;1.40;;;19.20;91.40;;;;;;4941659;28;20051;-80
2023/08/02 07:13:38;;;;;;;3.17;1.70;;;19.10;91.40;;;;;;4941158;28;20039;-79
2023/08/02 07:16:05;;;;;;;2.15;1.60;;;19.30;91.50;;;;;;4941563;28;20094;-79
2023/08/02 07:18:31;;;;;;;1.92;1.60;;;19.30;91.50;;;;;;4942059;28;20441;-79
2023/08/02 07:21:06;;;;;;;3.30;1.77;;;19.40;91.80;;;;;;4939950;28;20596;-79
2023/08/02 07:23:32;;;;;;;9.07;2.10;;;19.50;91.30;;;;;;4945971;28;20118;-80
2023/08/02 07:25:58;;;;;;;2.67;1.80;;;19.50;91.20;;;;;;4947046;28;20059;-80
2023/08/02 07:28:23;;;;;;;2.35;1.60;;;19.60;91.20;;;;;;4948698;28;20745;-76
2023/08/02 07:30:49;;;;;;;2.83;1.70;;;19.60;91.30;;;;;;4946678;28;20491;-78
2023/08/02 07:33:15;;;;;;;2.70;1.80;;;19.50;91.20;;;;;;4950583;28;20051;-79
2023/08/02 07:35:41;;;;;;;3.38;2.05;;;19.60;91.30;;;;;;4947760;28;20027;-78
2023/08/02 07:38:07;;;;;;;3.58;2.05;;;19.60;91.00;;;;;;4948952;28;20122;-79
2023/08/02 07:40:33;;;;;;;2.28;1.77;;;19.60;91.20;;;;;;4944092;28;20493;-78
2023/08/02 07:42:59;;;;;;;4.45;2.22;;;19.60;91.50;;;;;;4950161;28;20774;-78
2023/08/02 07:45:26;;;;;;;3.42;2.00;;;19.70;91.60;;;;;;4946207;28;20062;-77
2023/08/02 07:47:52;;;;;;;3.97;2.25;;;19.80;91.50;;;;;;4948092;29;20487;-77
2023/08/02 07:50:17;;;;;;;3.92;2.38;;;20.00;91.40;;;;;;4947314;28;20055;-76
2023/08/02 07:52:43;;;;;;;3.83;2.00;;;19.90;91.10;;;;;;4947481;28;20122;-79
2023/08/02 07:55:09;;;;;;;3.80;1.90;;;20.00;91.20;;;;;;4944914;28;20035;-78
2023/08/02 07:57:35;;;;;;;3.67;2.40;;;20.00;91.20;;;;;;4944273;28;20811;-79
2023/08/02 08:00:01;;;;;;;4.75;2.97;;;20.10;91.20;;;;;;4943813;28;20024;-80
2023/08/02 08:02:27;;;;;;;4.53;2.33;;;20.10;91.20;;;;;;4943973;28;20045;-80
2023/08/02 08:04:54;;;;;;;3.35;2.38;;;20.00;91.30;;;;;;4944002;28;20246;-79
2023/08/02 08:07:20;;;;;;;3.08;1.65;;;20.00;91.20;;;;;;4943423;28;20039;-77
2023/08/02 08:09:46;;;;;;;4.07;1.65;;;19.90;90.60;;;;;;4946474;28;20027;-78
2023/08/02 08:12:11;;;;;;;2.28;1.63;;;19.90;90.60;;;;;;4945223;28;20046;-77
2023/08/02 08:14:37;;;;;;;3.25;1.40;;;19.90;90.90;;;;;;4947115;28;20039;-78
2023/08/02 08:17:03;;;;;;;4.07;1.40;;;19.90;90.50;;;;;;4944027;28;20227;-78
2023/08/02 08:19:31;;;;;;;2.88;1.33;;;19.70;90.60;;;;;;4946961;28;20035;-78
2023/08/02 08:21:57;;;;;;;3.28;1.50;;;19.60;90.70;;;;;;4947364;28;20031;-80
2023/08/02 08:24:23;;;;;;;2.20;1.30;;;19.60;90.90;;;;;;4946273;28;20043;-80
2023/08/02 08:26:50;;;;;;;3.00;1.20;;;19.60;91.10;;;;;;4947118;28;20043;-80
2023/08/02 08:29:16;;;;;;;3.30;1.50;;;19.60;91.10;;;;;;4944815;28;20023;-77
2023/08/02 08:31:42;;;;;;;4.28;1.52;;;19.70;91.30;;;;;;4944603;28;20035;-78
2023/08/02 08:34:08;;;;;;;3.00;1.70;;;19.90;91.10;;;;;;4943505;28;20111;-78
2023/08/02 08:36:34;;;;;;;3.05;1.60;;;20.00;90.70;;;;;;4944411;28;20676;-78
2023/08/02 08:39:00;;;;;;;3.75;2.08;;;20.20;90.70;;;;;;4946486;28;20020;-80
2023/08/02 08:41:26;;;;;;;4.50;1.60;;;20.50;90.20;;;;;;4950650;28;20063;-79
2023/08/02 08:43:51;;;;;;;5.10;1.60;;;20.70;88.90;;;;;;4950015;28;20135;-78
2023/08/02 08:46:19;;;;;;;4.55;1.60;;;21.00;88.70;;;;;;4948604;28;20126;-76
2023/08/02 08:48:45;;;;;;;5.20;1.60;;;21.10;87.00;;;;;;4946924;29;20107;-78
2023/08/02 08:51:12;;;;;;;3.88;1.48;;;21.10;86.70;;;;;;4944169;28;20122;-78
2023/08/02 08:53:42;;;;;;;7.18;1.50;;;21.00;86.20;;;;;;4947406;29;20039;-77
2023/08/02 08:56:08;;;;;;;3.35;1.42;;;20.80;86.60;;;;;;4944474;28;20114;-79
2023/08/02 08:58:36;;;;;;;4.18;1.50;;;20.70;86.80;;;;;;4941115;29;20155;-77
2023/08/02 09:01:06;;;;;;;4.13;1.48;;;20.60;87.60;;;;;;4947266;28;20058;-79
2023/08/02 09:03:33;;;;;;;4.03;1.50;;;20.60;88.00;;;;;;4948308;28;20059;-78
2023/08/02 09:06:02;;;;;;;4.85;1.73;;;20.50;88.40;;;;;;4943074;28;20647;-77
2023/08/02 09:08:29;;;;;;;5.97;1.67;;;20.50;88.50;;;;;;4946723;28;20673;-78
2023/08/02 09:10:54;;;;;;;4.93;1.52;;;20.50;88.50;;;;;;4945926;28;20035;-79
2023/08/02 09:13:25;;;;;;;5.85;1.70;;;20.50;88.70;;;;;;4946619;28;20023;-79
2023/08/02 09:16:08;;;;;;;7.15;2.13;;;20.50;88.20;;;;;;4946282;28;20149;-78
2023/08/02 09:18:44;;;;;;;4.55;1.73;;;20.50;88.10;;;;;;4945578;28;20054;-78
2023/08/02 09:21:21;;;;;;;9.02;2.15;;;20.70;88.10;;;;;;4948749;28;20047;-75
2023/08/02 09:23:54;;;;;;;9.52;2.50;;;21.00;88.00;;;;;;4947634;28;20020;-77
2023/08/02 09:26:21;;;;;;;11.23;3.03;;;21.10;86.30;;;;;;4948056;28;20039;-78
2023/08/02 09:29:07;;;;;;;8.75;3.08;;;21.40;86.10;;;;;;4948374;29;20030;-78
2023/08/02 09:31:34;;;;;;;10.77;2.97;;;21.80;84.60;;;;;;4946983;28;20068;-78
2023/08/02 09:34:01;;;;;;;12.77;2.83;;;22.00;83.50;;;;;;4949513;28;20023;-79
2023/08/02 09:36:31;;;;;;;10.77;3.35;;;21.80;80.70;;;;;;4947278;28;20039;-74
2023/08/02 09:39:10;;;;;;;11.18;2.78;;;21.40;81.40;;;;;;4946639;29;20031;-78
2023/08/02 09:41:36;;;;;;;11.10;2.70;;;21.20;81.00;;;;;;4946075;28;20043;-78
2023/08/02 09:44:02;;;;;;;10.48;2.75;;;21.30;81.20;;;;;;4948188;29;20448;-78
2023/08/02 09:46:30;;;;;;;8.77;2.40;;;21.80;81.10;;;;;;4943617;28;20358;-81
2023/08/02 09:49:00;;;;;;;10.40;2.60;;;22.10;77.30;;;;;;4947514;28;20033;-80
2023/08/02 09:51:41;;;;;;;12.98;2.35;;;22.10;75.90;;;;;;4959403;28;20030;-79
2023/08/02 09:54:11;;;;;;;12.23;2.45;;;22.10;73.50;;;;;;4963284;28;20030;-80
2023/08/02 09:56:39;;;;;;;16.75;2.40;;;22.10;74.10;;;;;;4962554;28;20038;-77
2023/08/02 09:59:06;;;;;;;8.57;1.67;;;22.00;72.90;;;;;;4963580;28;20031;-80
2023/08/02 10:01:33;;;;;;;7.88;2.20;;;22.10;73.30;;;;;;4963639;28;20367;-78
2023/08/02 10:04:10;;;;;;;8.50;2.20;;;22.30;72.40;;;;;;4967969;28;20029;-79
2023/08/02 10:06:50;;;;;;;7.25;2.17;;;22.40;72.20;;;;;;4966335;28;20062;-75
2023/08/02 10:09:42;;;;;;;13.48;2.25;;;22.60;70.90;;;;;;4962580;28;20023;-76
2023/08/02 10:12:13;;;;;;;11.65;2.00;;;22.60;71.30;;;;;;4945291;28;20591;-77
2023/08/02 10:14:40;;;;;;;10.57;2.30;;;22.40;70.60;;;;;;4946307;28;20019;-79
2023/08/02 10:17:07;;;;;;;8.48;2.20;;;22.60;70.80;;;;;;4961718;28;20083;-78
2023/08/02 10:19:34;;;;;;;7.60;2.20;;;23.00;71.70;;;;;;4963895;28;20042;-76
2023/08/02 10:22:03;;;;;;;9.65;2.17;;;23.00;69.90;;;;;;4960609;28;20030;-75
2023/08/02 10:24:29;;;;;;;9.20;2.22;;;23.00;68.30;;;;;;4963627;28;20146;-77
2023/08/02 10:27:15;;;;;;;7.97;1.95;;;22.80;68.00;;;;;;4959869;28;20343;-76
2023/08/02 10:29:41;;;;;;;8.23;1.77;;;23.00;68.40;;;;;;4958821;28;20019;-75
2023/08/02 10:32:18;;;;;;;7.95;1.50;;;23.10;66.70;;;;;;4965934;28;20134;-76
2023/08/02 10:34:50;;;;;;;7.80;1.88;;;23.10;65.50;;;;;;4965609;28;20062;-77
2023/08/02 10:37:20;;;;;;;8.00;1.80;;;23.10;66.10;;;;;;4965780;28;20068;-76
2023/08/02 10:39:45;;;;;;;6.57;1.65;;;22.70;66.20;;;;;;4965107;28;20031;-76
2023/08/02 10:42:15;;;;;;;6.13;1.60;;;22.50;65.00;;;;;;4966278;28;20631;-76
2023/08/02 10:44:56;;;;;;;5.90;1.67;;;22.40;64.80;;;;;;4968120;28;20019;-74
2023/08/02 10:47:33;;;;;;;8.57;2.50;;;22.40;65.30;;;;;;4966071;28;20181;-75
2023/08/02 10:50:03;;;;;;;8.00;1.63;;;22.60;65.00;;;;;;4966269;28;20038;-75
2023/08/02 10:52:29;;;;;;;8.00;2.00;;;22.80;65.10;;;;;;4963995;28;20043;-76
2023/08/02 10:55:14;;;;;;;7.65;1.85;;;22.80;65.70;;;;;;4964280;28;20030;-76
2023/08/02 10:58:05;;;;;;;7.15;1.55;;;22.90;66.30;;;;;;4964719;28;20046;-75
2023/08/02 11:00:32;;;;;;;5.30;1.40;;;22.80;64.70;;;;;;4958323;28;20043;-75
2023/08/02 11:02:58;;;;;;;5.15;1.25;;;22.90;64.40;;;;;;4947488;28;20050;-76
2023/08/02 11:05:39;;;;;;;7.88;2.03;;;23.50;62.70;;;;;;4944306;28;20040;-77
2023/08/02 11:08:07;;;;;;;7.45;2.00;;;23.90;61.80;;;;;;4945494;28;20057;-75
2023/08/02 11:10:45;;;;;;;7.15;1.90;;;23.50;64.50;;;;;;4946255;28;20039;-76
2023/08/02 11:13:10;;;;;;;8.10;1.88;;;23.20;66.00;;;;;;4940266;28;20658;-77
2023/08/02 11:15:36;;;;;;;10.73;1.67;;;23.10;66.00;;;;;;4943352;28;20031;-77
2023/08/02 11:18:03;;;;;;;8.23;1.83;;;23.30;66.40;;;;;;4946856;29;20062;-76
2023/08/02 11:20:32;;;;;;;6.78;2.00;;;23.00;64.80;;;;;;4944037;28;20110;-74
2023/08/02 11:22:58;;;;;;;5.03;1.20;;;22.50;64.70;;;;;;4943116;28;20032;-76
2023/08/02 11:25:24;;;;;;;7.00;1.60;;;22.20;65.90;;;;;;4949378;28;20030;-77
2023/08/02 11:28:02;;;;;;;5.63;1.38;;;22.20;66.60;;;;;;4964930;28;20403;-76
2023/08/02 11:30:28;;;;;;;4.68;1.58;;;22.40;66.60;;;;;;4963856;28;20057;-75
2023/08/02 11:32:53;;;;;;;8.45;1.60;;;22.60;64.80;;;;;;4965547;28;20027;-76
2023/08/02 11:35:20;;;;;;;4.35;1.17;;;22.80;64.30;;;;;;4964321;28;20133;-77
2023/08/02 11:37:46;;;;;;;4.10;1.10;;;22.80;63.40;;;;;;4965487;28;20018;-77
2023/08/02 11:40:13;;;;;;;5.70;1.15;;;23.00;64.30;;;;;;4963658;28;20499;-77
2023/08/02 11:42:50;;;;;;;3.55;1.10;;;23.20;61.50;;;;;;4946374;28;20052;-77
2023/08/02 11:45:32;;;;;;;4.90;1.38;;;23.50;62.30;;;;;;4942978;28;20058;-77
2023/08/02 11:47:57;;;;;;;2.30;1.00;;;23.90;62.20;;;;;;4947339;28;20029;-77
2023/08/02 11:50:25;;;;;;;4.28;1.10;;;23.70;59.00;;;;;;4948251;28;20035;-79
2023/08/02 11:52:51;;;;;;;4.38;1.48;;;23.30;59.80;;;;;;4961282;28;20031;-78
2023/08/02 11:55:21;;;;;;;5.47;1.10;;;23.30;61.50;;;;;;4961888;28;20534;-78
2023/08/02 11:57:48;;;;;;;4.65;1.20;;;23.60;60.80;;;;;;4964743;28;20121;-78
2023/08/02 12:00:14;;;;;;;4.57;0.95;;;23.40;60.80;;;;;;4978198;28;20078;-77
2023/08/02 12:02:40;;;;;;;6.70;1.77;;;23.70;60.90;;;;;;4964095;28;20491;-74
2023/08/02 12:05:08;;;;;;;6.38;1.75;;;23.80;58.30;;;;;;4963682;28;20078;-74
2023/08/02 12:07:35;;;;;;;7.03;1.55;;;24.00;59.30;;;;;;4959654;28;20573;-74
2023/08/02 12:10:04;;;;;;;5.32;1.40;;;23.70;57.80;;;;;;4962253;28;20488;-75
2023/08/02 12:12:34;;;;;;;8.45;1.42;;;23.80;57.90;;;;;;4962563;28;20031;-74
2023/08/02 12:15:11;;;;;;;5.18;1.30;;;23.70;59.00;;;;;;4966010;28;20037;-76
2023/08/02 12:17:37;;;;;;;6.00;1.27;;;23.50;58.80;;;;;;4965081;28;20061;-74
2023/08/02 12:20:05;;;;;;;4.70;1.45;;;23.40;60.40;;;;;;4968991;28;20476;-73
2023/08/02 12:22:46;;;;;;;3.65;1.10;;;23.40;61.30;;;;;;4967538;28;20065;-73
2023/08/02 12:25:12;;;;;;;8.07;2.03;;;23.90;59.40;;;;;;4971011;28;20033;-74
2023/08/02 12:27:38;;;;;;;8.65;1.83;;;24.00;57.20;;;;;;4968579;28;20105;-74
2023/08/02 12:30:10;;;;;;;10.18;1.77;;;24.20;56.20;;;;;;4966833;28;20118;-75
2023/08/02 12:32:35;;;;;;;8.82;2.00;;;24.10;54.70;;;;;;4962982;28;20031;-73
2023/08/02 12:35:09;;;;;;;7.05;1.77;;;24.00;55.50;;;;;;4969270;28;20050;-75
2023/08/02 12:37:37;;;;;;;8.15;1.90;;;23.60;56.50;;;;;;4949045;28;20447;-74
2023/08/02 12:40:04;;;;;;;9.57;1.98;;;23.80;55.80;;;;;;4947751;28;20051;-74
2023/08/02 12:42:30;;;;;;;7.18;1.95;;;23.80;56.80;;;;;;4948335;28;20054;-74
2023/08/02 12:44:56;;;;;;;7.38;1.67;;;23.60;57.40;;;;;;4945775;28;20027;-73
2023/08/02 12:47:22;;;;;;;8.63;1.80;;;23.30;57.40;;;;;;4947339;28;20113;-73